Time;durP1;ratioP1;P1;durP2;ratioP2;P2;SDS_P1;SDS_P2;PMS_P1;PMS_P2;Temp;Humidity;BMP_temperature;BMP_pressure;BME280_temperature;BME280_humidity;BME280_pressure;Samples;Min_cycle;Max_cycle;Signal;HPM_P1;HPM_P2
2021/07/14 00:02:20;;;;;;;86.00;62.95;;;19.60;99.90;;;;;;5094899;28;20024;-71
2021/07/14 00:04:46;;;;;;;95.30;65.63;;;19.50;99.90;;;;;;5094635;28;20031;-71
2021/07/14 00:07:11;;;;;;;92.97;65.78;;;19.50;99.90;;;;;;5094798;28;20032;-71
2021/07/14 00:09:37;;;;;;;98.57;66.57;;;19.50;99.90;;;;;;5093379;28;20095;-71
2021/07/14 00:12:06;;;;;;;94.03;67.00;;;19.50;99.90;;;;;;5094745;28;20035;-71
2021/07/14 00:17:52;;;;;;;90.50;63.42;;;19.50;99.90;;;;;;5094323;28;20032;-71
2021/07/14 00:22:40;;;;;;;91.93;64.88;;;19.50;99.90;;;;;;5093858;28;20047;-72
2021/07/14 00:25:09;;;;;;;92.47;63.58;;;19.50;99.90;;;;;;5092989;28;20027;-72
2021/07/14 00:27:39;;;;;;;94.32;63.38;;;19.40;99.90;;;;;;5094453;28;20020;-72
2021/07/14 00:30:09;;;;;;;92.28;63.17;;;19.40;99.90;;;;;;5093053;28;20070;-71
2021/07/14 00:32:35;;;;;;;93.55;64.05;;;19.40;99.90;;;;;;5094150;28;20424;-72
2021/07/14 00:35:01;;;;;;;102.32;65.00;;;19.40;99.90;;;;;;5092524;28;20389;-71
2021/07/14 00:37:27;;;;;;;87.28;62.38;;;19.40;99.90;;;;;;5094263;28;20028;-72
2021/07/14 00:39:55;;;;;;;92.78;64.43;;;19.40;99.90;;;;;;5094021;28;20196;-71
2021/07/14 00:42:24;;;;;;;91.88;62.60;;;19.40;99.90;;;;;;5093723;28;20027;-72
2021/07/14 00:44:50;;;;;;;95.10;61.65;;;19.40;99.90;;;;;;5093746;28;20073;-71
2021/07/14 00:47:22;;;;;;;94.30;62.70;;;19.30;99.90;;;;;;5094204;28;20107;-72
2021/07/14 00:49:47;;;;;;;100.70;64.32;;;19.30;99.90;;;;;;5092351;28;20032;-72
2021/07/14 00:52:13;;;;;;;95.50;61.88;;;19.30;99.90;;;;;;5093646;28;20043;-71
2021/07/14 00:54:40;;;;;;;94.53;63.47;;;19.30;99.90;;;;;;5092211;28;20028;-72
2021/07/14 00:57:05;;;;;;;89.07;60.92;;;19.40;99.90;;;;;;5093387;28;20040;-71
2021/07/14 00:59:31;;;;;;;93.20;60.80;;;19.30;99.90;;;;;;5092568;28;20107;-71
2021/07/14 01:01:57;;;;;;;88.57;60.53;;;19.30;99.90;;;;;;5092587;28;20040;-71
2021/07/14 01:04:29;;;;;;;91.43;61.75;;;19.30;99.90;;;;;;5093768;28;20055;-71
2021/07/14 01:07:02;;;;;;;89.47;61.00;;;19.40;99.90;;;;;;5094039;28;20055;-71
2021/07/14 01:09:38;;;;;;;90.78;62.08;;;19.40;99.90;;;;;;5094000;28;20056;-71
2021/07/14 01:12:11;;;;;;;88.78;58.70;;;19.40;99.90;;;;;;5093929;28;20028;-72
2021/07/14 01:14:49;;;;;;;89.70;59.10;;;19.40;99.90;;;;;;5093768;28;20044;-71
2021/07/14 01:17:18;;;;;;;87.50;60.03;;;19.40;99.90;;;;;;5093902;28;20016;-71
2021/07/14 01:20:17;;;;;;;83.47;57.83;;;19.40;99.90;;;;;;5093982;28;20024;-71
2021/07/14 01:23:05;;;;;;;94.20;61.92;;;19.40;99.90;;;;;;5093266;28;20024;-71
2021/07/14 01:28:34;;;;;;;93.72;60.30;;;19.40;99.90;;;;;;5112155;27;20438;-70
2021/07/14 01:31:01;;;;;;;91.55;60.35;;;19.40;99.90;;;;;;5111344;28;20032;-70
2021/07/14 01:33:30;;;;;;;96.97;64.40;;;19.40;99.90;;;;;;5110674;28;20016;-70
2021/07/14 01:35:58;;;;;;;93.68;62.75;;;19.30;99.90;;;;;;5111542;28;20020;-70
2021/07/14 01:38:25;;;;;;;95.80;64.35;;;19.40;99.90;;;;;;5110245;28;20027;-71
2021/07/14 01:40:53;;;;;;;95.63;63.95;;;19.30;99.90;;;;;;5111500;28;20022;-71
2021/07/14 01:43:20;;;;;;;100.18;64.93;;;19.30;99.90;;;;;;5110467;28;20085;-70
2021/07/14 01:45:50;;;;;;;103.40;63.72;;;19.30;99.90;;;;;;5111055;28;20070;-70
2021/07/14 01:48:17;;;;;;;103.05;64.88;;;19.20;99.90;;;;;;5110053;28;20068;-70
2021/07/14 01:50:45;;;;;;;100.88;64.60;;;19.20;99.90;;;;;;5111516;28;20488;-70
2021/07/14 01:53:11;;;;;;;96.88;65.53;;;19.30;99.90;;;;;;5111194;28;20156;-71
2021/07/14 01:55:40;;;;;;;102.65;65.53;;;19.20;99.90;;;;;;5111344;28;20067;-72
2021/07/14 01:58:07;;;;;;;107.80;66.63;;;19.20;99.90;;;;;;5110900;28;20076;-71
2021/07/14 02:00:34;;;;;;;106.07;65.90;;;19.30;99.90;;;;;;5111390;28;20027;-71
2021/07/14 02:03:07;;;;;;;106.68;68.07;;;19.30;99.90;;;;;;5092560;28;20028;-72
2021/07/14 02:05:36;;;;;;;110.93;67.35;;;19.30;99.90;;;;;;5110719;28;20027;-72
2021/07/14 02:08:02;;;;;;;109.93;68.50;;;19.30;99.90;;;;;;5110819;28;20415;-72
2021/07/14 02:10:29;;;;;;;103.43;66.45;;;19.30;99.90;;;;;;5111192;28;20012;-71
2021/07/14 02:12:56;;;;;;;103.60;67.13;;;19.20;99.90;;;;;;5110838;28;20016;-71
2021/07/14 02:15:25;;;;;;;106.95;65.57;;;19.20;99.90;;;;;;5111105;28;20487;-71
2021/07/14 02:17:59;;;;;;;116.50;69.25;;;19.20;99.90;;;;;;5111068;28;20027;-71
2021/07/14 02:20:24;;;;;;;;;;;19.20;99.90;;;;;;5111514;28;20031;-72
2021/07/14 02:22:51;;;;;;;107.63;65.70;;;19.20;99.90;;;;;;5110872;28;19904;-71
2021/07/14 02:25:18;;;;;;;108.47;66.85;;;19.20;99.90;;;;;;5110342;28;20058;-71
2021/07/14 02:27:45;;;;;;;107.93;67.38;;;19.20;99.90;;;;;;5110184;28;20040;-72
2021/07/14 02:30:19;;;;;;;111.68;66.38;;;19.20;99.90;;;;;;5110538;28;20020;-72
2021/07/14 02:32:57;;;;;;;103.97;65.97;;;19.30;99.90;;;;;;5109370;28;20012;-72
2021/07/14 02:35:24;;;;;;;112.53;68.47;;;19.30;99.90;;;;;;5110690;28;20029;-72
2021/07/14 02:37:56;;;;;;;116.10;68.47;;;19.20;99.90;;;;;;5108302;28;20466;-71
2021/07/14 02:40:28;;;;;;;115.57;70.30;;;19.20;99.90;;;;;;5095192;28;20479;-72
2021/07/14 02:42:58;;;;;;;110.10;65.90;;;19.20;99.90;;;;;;5078881;28;20751;-71
2021/07/14 02:45:27;;;;;;;102.53;64.20;;;19.30;99.90;;;;;;5095549;28;20024;-71
2021/07/14 02:47:53;;;;;;;105.63;64.72;;;19.30;99.90;;;;;;5095790;28;20154;-71
2021/07/14 02:50:22;;;;;;;113.95;69.03;;;19.20;99.90;;;;;;5096819;28;20063;-71
2021/07/14 02:52:50;;;;;;;119.55;68.78;;;19.20;99.90;;;;;;5096754;28;20425;-71
2021/07/14 02:55:19;;;;;;;122.03;70.25;;;19.10;99.90;;;;;;5096706;28;20023;-71
2021/07/14 02:57:48;;;;;;;123.03;74.28;;;19.10;99.90;;;;;;5094877;28;20487;-71
2021/07/14 03:00:14;;;;;;;122.65;72.60;;;19.10;99.90;;;;;;5096653;28;20028;-71
2021/07/14 03:02:40;;;;;;;123.82;70.95;;;19.10;99.90;;;;;;5096585;28;20522;-71
2021/07/14 03:05:07;;;;;;;117.57;69.13;;;19.20;99.90;;;;;;5094719;28;20028;-71
2021/07/14 03:07:33;;;;;;;120.88;70.20;;;19.20;99.90;;;;;;5096158;28;20047;-70
2021/07/14 03:10:00;;;;;;;119.88;71.60;;;19.20;99.90;;;;;;5095968;28;20027;-71
2021/07/14 03:12:27;;;;;;;119.00;71.05;;;19.20;99.90;;;;;;5096139;28;20020;-72
2021/07/14 03:14:58;;;;;;;122.93;70.72;;;19.20;99.90;;;;;;5096395;28;20539;-71
2021/07/14 03:17:27;;;;;;;120.95;69.07;;;19.20;99.90;;;;;;5094786;28;20389;-71
2021/07/14 03:19:54;;;;;;;115.05;68.30;;;19.20;99.90;;;;;;5096284;28;20381;-71
2021/07/14 03:22:22;;;;;;;113.50;67.68;;;19.20;99.90;;;;;;5096206;28;20043;-71
2021/07/14 03:24:48;;;;;;;109.75;66.53;;;19.30;99.90;;;;;;5096165;28;20492;-72
2021/07/14 03:27:14;;;;;;;106.63;64.15;;;19.30;99.90;;;;;;5093984;28;20048;-71
2021/07/14 03:29:40;;;;;;;100.18;62.60;;;19.30;99.90;;;;;;5096023;28;20032;-72
2021/07/14 03:32:07;;;;;;;100.15;63.33;;;19.30;99.90;;;;;;5096018;28;20574;-71
2021/07/14 03:34:35;;;;;;;103.57;63.78;;;19.30;99.90;;;;;;5094522;28;20027;-72
2021/07/14 03:37:04;;;;;;;100.57;61.67;;;19.30;99.90;;;;;;5094101;28;20389;-72
2021/07/14 03:39:31;;;;;;;99.65;60.80;;;19.30;99.90;;;;;;5095837;28;20346;-72
2021/07/14 03:41:58;;;;;;;106.22;62.22;;;19.40;99.90;;;;;;5094610;28;20020;-72
2021/07/14 03:44:24;;;;;;;102.97;63.05;;;19.30;99.90;;;;;;5095782;28;20024;-72
2021/07/14 03:46:51;;;;;;;102.70;62.55;;;19.30;99.90;;;;;;5095376;28;20035;-71
2021/07/14 03:49:17;;;;;;;117.82;65.75;;;19.30;99.90;;;;;;5095150;28;20115;-71
2021/07/14 03:51:44;;;;;;;110.97;66.65;;;19.20;99.90;;;;;;5093041;28;20016;-72
2021/07/14 03:54:11;;;;;;;108.95;62.08;;;19.20;99.90;;;;;;5095337;28;20054;-71
2021/07/14 03:56:37;;;;;;;102.63;60.80;;;19.20;99.90;;;;;;5093740;28;20028;-71
2021/07/14 03:59:03;;;;;;;96.75;60.28;;;19.20;99.90;;;;;;5093701;28;20031;-71
2021/07/14 04:01:29;;;;;;;89.25;56.47;;;19.30;99.90;;;;;;5093739;28;20028;-71
2021/07/14 04:03:55;;;;;;;96.40;57.60;;;19.20;99.90;;;;;;5093945;28;20381;-71
2021/07/14 04:06:22;;;;;;;105.07;61.13;;;19.20;99.90;;;;;;5095273;28;20024;-72
2021/07/14 04:09:20;;;;;;;97.30;59.53;;;19.30;99.90;;;;;;5094762;28;20098;-72
2021/07/14 04:11:47;;;;;;;101.13;59.97;;;19.30;99.90;;;;;;5094997;28;20016;-72
2021/07/14 04:14:13;;;;;;;98.78;58.05;;;19.30;99.90;;;;;;5095211;28;20462;-71
2021/07/14 04:16:38;;;;;;;94.28;58.35;;;19.30;99.90;;;;;;5095143;28;20140;-72
2021/07/14 04:19:04;;;;;;;92.25;57.67;;;19.30;99.90;;;;;;5094505;28;20029;-71
2021/07/14 04:21:30;;;;;;;89.28;55.88;;;19.30;99.90;;;;;;5094794;28;20039;-71
2021/07/14 04:23:56;;;;;;;95.68;57.55;;;19.30;99.90;;;;;;5093722;28;20020;-72
2021/07/14 04:26:22;;;;;;;93.82;56.58;;;19.30;99.90;;;;;;5094818;28;20107;-72
2021/07/14 04:28:48;;;;;;;89.38;55.78;;;19.30;99.90;;;;;;5094944;28;20016;-71
2021/07/14 04:31:13;;;;;;;93.97;57.47;;;19.30;99.90;;;;;;5094566;28;20519;-71
2021/07/14 04:33:41;;;;;;;89.47;54.13;;;19.40;99.90;;;;;;5094546;28;20111;-72
2021/07/14 04:36:08;;;;;;;91.75;55.22;;;19.40;99.90;;;;;;5094270;28;20020;-72
2021/07/14 04:38:35;;;;;;;86.43;53.03;;;19.40;99.90;;;;;;5094167;28;20165;-72
2021/07/14 04:41:00;;;;;;;80.80;51.90;;;19.40;99.90;;;;;;5094180;28;20031;-72
2021/07/14 04:43:27;;;;;;;85.88;54.10;;;19.40;99.90;;;;;;5094408;28;20448;-71
2021/07/14 04:45:52;;;;;;;83.55;52.03;;;19.40;99.90;;;;;;5094652;28;20038;-71
2021/07/14 04:48:18;;;;;;;82.63;50.22;;;19.40;99.90;;;;;;5094533;28;20024;-71
2021/07/14 04:50:43;;;;;;;86.38;51.50;;;19.40;99.90;;;;;;5075873;28;20028;-71
2021/07/14 04:53:09;;;;;;;83.03;48.60;;;19.50;99.90;;;;;;5092678;28;20055;-71
2021/07/14 04:55:34;;;;;;;78.72;48.65;;;19.50;99.90;;;;;;5094467;28;20024;-71
2021/07/14 04:58:00;;;;;;;77.72;49.90;;;19.50;99.90;;;;;;5093290;28;20028;-71
2021/07/14 05:00:25;;;;;;;79.15;48.80;;;19.60;99.90;;;;;;5094405;28;20028;-71
2021/07/14 05:02:51;;;;;;;80.55;49.10;;;19.50;99.90;;;;;;5093876;28;20027;-71
2021/07/14 05:05:17;;;;;;;83.32;50.47;;;19.50;99.90;;;;;;5094065;28;20024;-71
2021/07/14 05:07:44;;;;;;;86.28;49.88;;;19.50;99.90;;;;;;5094211;28;20465;-71
2021/07/14 05:10:10;;;;;;;79.50;48.80;;;19.50;99.90;;;;;;5093808;28;20481;-71
2021/07/14 05:12:36;;;;;;;88.10;50.30;;;19.50;99.90;;;;;;5094221;28;20028;-71
2021/07/14 05:15:03;;;;;;;89.75;51.65;;;19.50;99.90;;;;;;5092733;28;20060;-71
2021/07/14 05:17:28;;;;;;;87.85;50.78;;;19.40;99.90;;;;;;5094153;28;20024;-71
2021/07/14 05:19:54;;;;;;;89.15;51.30;;;19.50;99.90;;;;;;5093878;28;20024;-71
2021/07/14 05:22:21;;;;;;;93.55;51.90;;;19.50;99.90;;;;;;5094206;28;20517;-71
2021/07/14 05:24:47;;;;;;;95.05;54.35;;;19.50;99.90;;;;;;5094103;28;20023;-71
2021/07/14 05:27:12;;;;;;;97.88;55.92;;;19.50;99.90;;;;;;5092146;28;20489;-71
2021/07/14 05:29:38;;;;;;;111.80;58.40;;;19.40;99.90;;;;;;5092292;28;20067;-71
2021/07/14 05:32:05;;;;;;;114.85;59.17;;;19.40;99.90;;;;;;5093770;28;20385;-71
2021/07/14 05:34:31;;;;;;;110.93;57.65;;;19.40;99.90;;;;;;5092254;28;20119;-71
2021/07/14 05:36:56;;;;;;;114.40;58.25;;;19.40;99.90;;;;;;5094058;28;20052;-71
2021/07/14 05:39:22;;;;;;;126.63;60.92;;;19.40;99.90;;;;;;5093017;28;20123;-71
2021/07/14 05:41:48;;;;;;;124.88;61.92;;;19.50;99.90;;;;;;5093621;28;20027;-71
2021/07/14 05:44:13;;;;;;;115.07;59.65;;;19.40;99.90;;;;;;5093900;28;20358;-71
2021/07/14 05:46:39;;;;;;;114.75;59.58;;;19.50;99.90;;;;;;5093822;28;20035;-71
2021/07/14 05:49:04;;;;;;;120.10;60.28;;;19.50;99.90;;;;;;5092415;28;20024;-71
2021/07/14 05:51:31;;;;;;;127.60;61.53;;;19.40;99.90;;;;;;5093582;28;20052;-71
2021/07/14 05:54:05;;;;;;;124.47;57.10;;;19.50;99.90;;;;;;5092673;28;20107;-71
2021/07/14 05:56:31;;;;;;;120.88;59.67;;;19.50;99.90;;;;;;5092236;28;20016;-71
2021/07/14 05:58:56;;;;;;;116.40;59.15;;;19.50;99.90;;;;;;5075222;28;20074;-71
2021/07/14 06:01:22;;;;;;;129.00;62.95;;;19.50;99.90;;;;;;5093127;28;20032;-71
2021/07/14 06:03:48;;;;;;;133.00;63.20;;;19.50;99.90;;;;;;5092533;28;20043;-71
2021/07/14 06:06:15;;;;;;;151.90;65.13;;;19.50;99.90;;;;;;5092339;28;20354;-71
2021/07/14 06:08:40;;;;;;;150.00;66.43;;;19.40;99.90;;;;;;5090191;28;20070;-71
2021/07/14 06:11:06;;;;;;;153.65;66.65;;;19.40;99.90;;;;;;5091767;28;20020;-71
2021/07/14 06:13:33;;;;;;;161.02;67.45;;;19.50;99.90;;;;;;5091370;28;20171;-71
2021/07/14 06:15:58;;;;;;;174.52;68.65;;;19.40;99.90;;;;;;5095237;28;20020;-71
2021/07/14 06:18:24;;;;;;;164.90;65.47;;;19.40;99.90;;;;;;5097278;28;20028;-71
2021/07/14 06:20:50;;;;;;;158.20;66.50;;;19.50;99.90;;;;;;5095358;28;20020;-71
2021/07/14 06:23:15;;;;;;;182.95;69.00;;;19.40;99.90;;;;;;5093644;28;20111;-71
2021/07/14 06:25:41;;;;;;;161.90;69.68;;;19.50;99.90;;;;;;5095037;28;20028;-71
2021/07/14 06:28:08;;;;;;;171.90;69.10;;;19.50;99.90;;;;;;5096199;28;20076;-71
2021/07/14 06:30:34;;;;;;;156.85;68.28;;;19.50;99.90;;;;;;5095028;28;20016;-71
2021/07/14 06:33:01;;;;;;;183.55;69.07;;;19.50;99.90;;;;;;5077761;28;20031;-71
2021/07/14 06:35:26;;;;;;;172.43;67.57;;;19.50;99.90;;;;;;5094545;28;20028;-72
2021/07/14 06:37:52;;;;;;;173.20;71.47;;;19.50;99.90;;;;;;5095960;28;20031;-71
2021/07/14 06:40:18;;;;;;;192.10;73.75;;;19.50;99.90;;;;;;5095265;28;20424;-71
2021/07/14 06:42:45;;;;;;;203.88;74.72;;;19.50;99.90;;;;;;5094260;28;20030;-71
2021/07/14 06:45:11;;;;;;;185.30;73.28;;;19.50;99.90;;;;;;5083246;28;20450;-71
2021/07/14 06:47:37;;;;;;;185.43;72.53;;;19.50;99.90;;;;;;5081504;28;20038;-71
2021/07/14 06:50:05;;;;;;;229.23;76.22;;;19.50;99.90;;;;;;5095790;28;20028;-72
2021/07/14 06:52:30;;;;;;;220.63;75.88;;;19.50;99.90;;;;;;5092252;28;20098;-72
2021/07/14 06:54:56;;;;;;;199.98;74.35;;;19.50;99.90;;;;;;5087023;28;20449;-71
2021/07/14 06:57:24;;;;;;;177.55;72.30;;;19.50;99.90;;;;;;5084993;28;20132;-71
2021/07/14 06:59:50;;;;;;;225.77;75.65;;;19.50;99.90;;;;;;5081458;28;20469;-72
2021/07/14 07:02:16;;;;;;;168.15;70.88;;;19.50;99.90;;;;;;5090457;28;20043;-71
2021/07/14 07:04:42;;;;;;;201.82;71.18;;;19.60;99.90;;;;;;5089812;28;20024;-72
2021/07/14 07:07:07;;;;;;;190.77;71.82;;;19.50;99.90;;;;;;5082582;28;20035;-71
2021/07/14 07:09:33;;;;;;;197.75;73.95;;;19.60;99.90;;;;;;5082881;28;20024;-71
2021/07/14 07:11:59;;;;;;;240.90;77.25;;;19.50;99.90;;;;;;5095706;28;20024;-71
2021/07/14 07:14:24;;;;;;;190.40;73.13;;;19.50;99.90;;;;;;5094810;28;20068;-71
2021/07/14 07:16:50;;;;;;;180.15;70.60;;;19.50;99.90;;;;;;5081196;28;20157;-72
2021/07/14 07:19:15;;;;;;;178.38;68.57;;;19.50;99.90;;;;;;5075176;28;20478;-72
2021/07/14 07:21:41;;;;;;;168.70;66.30;;;19.50;99.90;;;;;;5087513;28;20032;-72
2021/07/14 07:24:06;;;;;;;143.55;61.60;;;19.60;99.90;;;;;;5094918;28;20024;-71
2021/07/14 07:26:32;;;;;;;149.48;61.95;;;19.60;99.90;;;;;;5085409;28;20098;-72
2021/07/14 07:29:03;;;;;;;135.95;59.58;;;19.70;99.90;;;;;;5075035;28;20027;-72
2021/07/14 07:31:28;;;;;;;126.75;57.17;;;19.70;99.90;;;;;;5074496;28;20032;-71
2021/07/14 07:33:54;;;;;;;123.72;54.65;;;19.70;99.90;;;;;;5076715;28;20168;-71
2021/07/14 07:36:19;;;;;;;135.02;54.17;;;19.70;99.90;;;;;;5073978;28;20017;-71
2021/07/14 07:38:45;;;;;;;140.70;56.33;;;19.70;99.90;;;;;;5074513;28;20420;-71
2021/07/14 07:41:12;;;;;;;123.25;53.38;;;19.70;99.90;;;;;;5089086;28;20545;-72
2021/07/14 07:43:38;;;;;;;126.18;53.92;;;19.60;99.90;;;;;;5095225;28;20074;-72
2021/07/14 07:46:04;;;;;;;119.82;56.45;;;19.60;99.90;;;;;;5093172;28;20024;-71
2021/07/14 07:48:30;;;;;;;129.50;55.45;;;19.70;99.90;;;;;;5095354;28;20028;-71
2021/07/14 07:50:56;;;;;;;122.93;54.25;;;19.70;99.90;;;;;;5092632;28;20546;-71
2021/07/14 07:53:22;;;;;;;120.75;54.55;;;19.80;99.90;;;;;;5087199;28;20492;-71
2021/07/14 07:55:49;;;;;;;109.18;53.65;;;19.80;99.90;;;;;;5092403;28;20024;-71
2021/07/14 07:58:15;;;;;;;110.78;53.63;;;19.80;99.90;;;;;;5094152;28;20024;-71
2021/07/14 08:00:41;;;;;;;116.65;52.10;;;19.80;99.90;;;;;;5093646;28;20024;-72
2021/07/14 08:03:07;;;;;;;109.13;51.75;;;19.90;99.90;;;;;;5075802;28;20081;-72
2021/07/14 08:05:33;;;;;;;120.07;53.50;;;19.90;99.90;;;;;;5092528;28;20028;-71
2021/07/14 08:07:58;;;;;;;111.15;54.25;;;19.90;99.90;;;;;;5092585;28;20107;-72
2021/07/14 08:10:24;;;;;;;106.65;50.40;;;20.00;99.90;;;;;;5093509;28;20115;-72
2021/07/14 08:12:50;;;;;;;97.60;49.38;;;20.10;99.90;;;;;;5075562;28;20107;-72
2021/07/14 08:15:17;;;;;;;101.60;49.42;;;20.20;99.90;;;;;;5091975;28;20024;-71
2021/07/14 08:17:43;;;;;;;82.43;45.80;;;20.30;99.90;;;;;;5093895;28;20019;-72
2021/07/14 08:20:11;;;;;;;72.75;43.00;;;20.30;99.90;;;;;;5093231;28;20024;-71
2021/07/14 08:22:37;;;;;;;83.82;44.92;;;20.30;99.90;;;;;;5093927;28;20055;-72
2021/07/14 08:25:04;;;;;;;76.55;43.00;;;20.30;99.90;;;;;;5076750;28;20032;-72
2021/07/14 08:27:30;;;;;;;68.82;39.85;;;20.40;99.90;;;;;;5106031;28;20044;-72
2021/07/14 08:29:59;;;;;;;70.53;39.90;;;20.30;99.90;;;;;;5093234;28;20385;-72
2021/07/14 08:32:26;;;;;;;65.90;39.22;;;20.40;99.90;;;;;;5094084;28;20467;-72
2021/07/14 08:34:51;;;;;;;75.90;41.33;;;20.30;99.90;;;;;;5092916;28;20020;-72
2021/07/14 08:37:17;;;;;;;73.45;41.95;;;20.30;99.90;;;;;;5093446;28;20599;-72
2021/07/14 08:39:42;;;;;;;74.72;42.03;;;20.40;99.90;;;;;;5093297;28;20078;-72
2021/07/14 08:42:10;;;;;;;68.22;41.17;;;20.40;99.90;;;;;;5094202;28;20032;-71
2021/07/14 08:44:36;;;;;;;71.85;41.25;;;20.30;99.90;;;;;;5074601;28;20016;-72
2021/07/14 08:47:02;;;;;;;70.63;40.58;;;20.30;99.90;;;;;;5091643;28;20059;-71
2021/07/14 08:49:28;;;;;;;71.15;42.92;;;20.40;99.90;;;;;;5083338;28;20095;-72
2021/07/14 08:51:54;;;;;;;62.88;40.22;;;20.40;99.90;;;;;;5092353;28;20024;-71
2021/07/14 08:54:20;;;;;;;68.75;41.67;;;20.50;99.90;;;;;;5079518;28;20073;-72
2021/07/14 08:56:48;;;;;;;68.30;40.13;;;20.50;99.90;;;;;;5092376;28;20024;-72
2021/07/14 08:59:16;;;;;;;60.42;38.70;;;20.60;99.90;;;;;;5090685;28;20032;-71
2021/07/14 09:01:42;;;;;;;64.13;39.83;;;20.60;99.90;;;;;;5088600;28;20020;-71
2021/07/14 09:04:07;;;;;;;74.82;41.40;;;20.60;99.90;;;;;;5071587;28;20024;-71
2021/07/14 09:06:33;;;;;;;65.60;41.42;;;20.50;99.90;;;;;;5072775;28;20131;-72
2021/07/14 09:08:58;;;;;;;66.60;41.20;;;20.50;99.90;;;;;;5089712;28;20095;-71
2021/07/14 09:11:24;;;;;;;71.03;41.42;;;20.40;99.90;;;;;;5092260;28;20369;-71
2021/07/14 09:13:49;;;;;;;65.22;40.28;;;20.50;99.90;;;;;;5091270;28;20423;-71
2021/07/14 09:16:35;;;;;;;66.07;41.35;;;20.50;99.90;;;;;;5079248;28;20120;-71
2021/07/14 09:19:12;;;;;;;69.85;42.60;;;20.50;99.90;;;;;;5088690;28;20094;-72
2021/07/14 09:21:41;;;;;;;65.65;41.72;;;20.50;99.90;;;;;;5076540;28;20481;-72
2021/07/14 09:24:31;;;;;;;66.28;41.78;;;20.50;99.90;;;;;;5092425;28;20020;-72
2021/07/14 09:26:58;;;;;;;66.72;42.53;;;20.60;99.90;;;;;;5085447;28;20086;-72
2021/07/14 09:29:24;;;;;;;76.85;43.22;;;20.60;99.90;;;;;;5073645;28;20033;-72
2021/07/14 09:31:52;;;;;;;72.45;43.40;;;20.70;99.90;;;;;;5078955;28;20008;-72
2021/07/14 09:34:27;;;;;;;64.63;41.97;;;20.70;99.90;;;;;;5089707;28;20020;-72
2021/07/14 09:37:02;;;;;;;66.50;41.55;;;20.80;99.90;;;;;;5071605;28;20048;-72
2021/07/14 09:39:37;;;;;;;60.03;39.22;;;20.80;99.90;;;;;;5074964;28;20469;-71
2021/07/14 09:42:08;;;;;;;68.78;41.40;;;20.90;99.90;;;;;;5093321;28;20094;-72
2021/07/14 09:44:43;;;;;;;63.35;41.83;;;21.00;99.90;;;;;;5089257;28;20414;-72
2021/07/14 09:47:11;;;;;;;69.75;42.67;;;21.10;99.90;;;;;;5084276;28;20523;-72
2021/07/14 09:49:36;;;;;;;68.03;42.35;;;21.10;99.90;;;;;;5091499;28;20111;-72
2021/07/14 09:52:09;;;;;;;70.88;42.00;;;21.00;99.90;;;;;;5080615;28;20040;-72
2021/07/14 09:54:35;;;;;;;67.18;42.15;;;21.00;99.90;;;;;;5094959;28;20154;-75
2021/07/14 09:57:18;;;;;;;70.85;42.42;;;21.00;99.90;;;;;;5092046;28;20503;-75
2021/07/14 09:59:45;;;;;;;71.75;44.80;;;21.00;99.90;;;;;;5063938;28;20029;-75
2021/07/14 10:02:14;;;;;;;69.80;43.75;;;21.00;99.90;;;;;;5093077;28;20032;-75
2021/07/14 10:04:40;;;;;;;70.43;44.13;;;21.00;99.90;;;;;;5090729;28;20382;-75
2021/07/14 10:07:18;;;;;;;72.45;45.83;;;21.00;99.90;;;;;;5093196;28;20501;-75
2021/07/14 10:09:45;;;;;;;73.93;45.25;;;20.90;99.90;;;;;;5098768;28;20016;-75
2021/07/14 10:12:32;;;;;;;74.90;45.10;;;20.90;99.90;;;;;;5094236;28;20016;-75
2021/07/14 10:15:18;;;;;;;79.13;48.20;;;20.80;99.90;;;;;;5094404;28;20072;-75
2021/07/14 10:17:47;;;;;;;74.45;46.90;;;20.80;99.90;;;;;;5094229;28;20036;-75
2021/07/14 10:20:33;;;;;;;72.75;47.40;;;20.80;99.90;;;;;;5095527;28;20047;-75
2021/07/14 10:23:03;;;;;;;80.68;47.58;;;20.80;99.90;;;;;;5092157;28;20542;-75
2021/07/14 10:25:30;;;;;;;83.53;49.78;;;20.90;99.90;;;;;;5091089;28;20024;-75
2021/07/14 10:27:58;;;;;;;84.35;48.95;;;20.90;99.90;;;;;;5082838;28;20063;-75
2021/07/14 10:30:24;;;;;;;79.20;47.55;;;20.90;99.90;;;;;;5092158;28;20149;-75
2021/07/14 10:32:51;;;;;;;81.70;49.20;;;20.90;99.90;;;;;;5095191;28;20127;-75
2021/07/14 10:35:21;;;;;;;83.22;51.22;;;21.00;99.90;;;;;;5095886;28;20016;-75
2021/07/14 10:37:52;;;;;;;79.13;49.78;;;21.00;99.90;;;;;;5077157;28;20404;-75
2021/07/14 10:40:20;;;;;;;75.72;47.80;;;21.10;99.90;;;;;;5091051;28;20078;-75
2021/07/14 10:42:47;;;;;;;79.28;50.92;;;21.10;99.90;;;;;;5096199;28;20028;-75
2021/07/14 10:45:13;;;;;;;75.28;48.92;;;21.10;99.90;;;;;;5079946;28;20036;-75
2021/07/14 10:47:39;;;;;;;83.00;52.22;;;21.10;99.90;;;;;;5074702;28;20029;-75
2021/07/14 10:50:06;;;;;;;82.03;50.55;;;21.20;99.90;;;;;;5089984;28;20461;-75
2021/07/14 10:52:32;;;;;;;83.97;51.22;;;21.30;99.90;;;;;;5094876;28;20074;-76
2021/07/14 10:55:00;;;;;;;82.00;50.63;;;21.40;99.90;;;;;;5094484;28;20028;-75
2021/07/14 10:57:26;;;;;;;78.03;49.75;;;21.60;99.90;;;;;;5094453;28;20389;-75
2021/07/14 10:59:52;;;;;;;79.47;50.40;;;21.60;99.90;;;;;;5092378;28;20028;-75
2021/07/14 11:02:17;;;;;;;81.80;52.38;;;21.60;99.90;;;;;;5095793;28;20032;-75
2021/07/14 11:04:48;;;;;;;80.70;50.75;;;21.70;99.90;;;;;;5093960;28;20032;-75
2021/07/14 11:07:14;;;;;;;80.53;50.92;;;21.80;99.90;;;;;;5095206;28;20020;-75
2021/07/14 11:09:46;;;;;;;81.53;51.78;;;21.70;99.90;;;;;;5093541;28;20016;-75
2021/07/14 11:12:13;;;;;;;79.10;50.58;;;21.80;99.90;;;;;;5094128;28;20462;-75
2021/07/14 11:14:41;;;;;;;80.80;50.10;;;21.90;99.90;;;;;;5095284;28;20424;-75
2021/07/14 11:17:09;;;;;;;82.07;52.83;;;21.80;99.90;;;;;;5093262;28;20093;-75
2021/07/14 11:19:46;;;;;;;86.63;54.47;;;21.70;99.90;;;;;;5093449;28;20039;-75
2021/07/14 11:22:14;;;;;;;86.20;51.60;;;21.60;99.90;;;;;;5092460;28;20027;-76
2021/07/14 11:32:57;;;;;;;95.85;58.30;;;21.30;99.90;;;;;;5130959;27;20324;-74
2021/07/14 11:35:33;;;;;;;101.18;59.05;;;21.20;99.90;;;;;;5112899;28;20027;-74
2021/07/14 11:38:02;;;;;;;97.70;58.15;;;21.20;99.90;;;;;;5131494;28;20023;-73
2021/07/14 11:43:27;;;;;;;104.00;59.03;;;21.20;99.90;;;;;;5131586;27;20481;-73
2021/07/14 11:46:02;;;;;;;112.20;59.92;;;21.20;99.90;;;;;;5130083;27;20023;-73
2021/07/14 11:48:30;;;;;;;103.18;59.78;;;21.20;99.90;;;;;;5131601;27;20080;-73
2021/07/14 11:51:02;;;;;;;104.95;59.03;;;21.20;99.90;;;;;;5129693;27;20484;-73
2021/07/14 11:56:12;;;;;;;114.68;61.30;;;21.30;99.90;;;;;;5070021;28;20180;-74
2021/07/14 11:59:01;;;;;;;108.20;61.50;;;21.40;99.90;;;;;;5073201;28;20374;-74
2021/07/14 12:04:09;;;;;;;101.70;59.03;;;21.60;99.90;;;;;;5090956;27;20110;-74
2021/07/14 12:06:42;;;;;;;107.32;60.63;;;21.70;99.90;;;;;;5074058;28;20401;-74
2021/07/14 12:12:07;;;;;;;106.43;59.83;;;21.70;99.90;;;;;;5130360;27;20385;-74
2021/07/14 12:14:37;;;;;;;100.82;59.40;;;22.00;99.90;;;;;;5117103;28;20487;-74
2021/07/14 12:17:13;;;;;;;94.05;58.65;;;22.00;99.90;;;;;;5113183;28;20026;-74
2021/07/14 12:19:55;;;;;;;94.25;58.95;;;22.00;99.90;;;;;;5131411;28;20449;-75
2021/07/14 12:22:25;;;;;;;93.53;57.90;;;21.90;99.90;;;;;;5132503;28;20058;-76
2021/07/14 12:24:55;;;;;;;98.38;58.65;;;22.00;99.90;;;;;;5114004;28;20536;-73
2021/07/14 12:27:25;;;;;;;98.97;58.33;;;22.10;99.90;;;;;;5131508;28;20028;-74
2021/07/14 12:29:55;;;;;;;92.88;59.30;;;22.10;99.90;;;;;;5130030;28;20027;-74
2021/07/14 12:32:31;;;;;;;101.40;59.42;;;22.00;99.90;;;;;;5130975;28;20047;-74
2021/07/14 12:34:57;;;;;;;96.50;60.05;;;22.00;99.90;;;;;;5115062;28;20019;-74
2021/07/14 12:37:22;;;;;;;105.80;63.28;;;21.90;99.90;;;;;;5130659;28;20380;-74
2021/07/14 12:39:48;;;;;;;101.75;61.65;;;21.90;99.90;;;;;;5130202;28;20023;-74
2021/07/14 12:42:20;;;;;;;104.90;61.85;;;21.90;99.90;;;;;;5116124;28;20502;-74
2021/07/14 12:44:47;;;;;;;98.75;61.67;;;21.80;99.90;;;;;;5130681;28;20061;-74
2021/07/14 12:47:17;;;;;;;98.43;61.17;;;21.80;99.90;;;;;;5114399;28;20028;-76
2021/07/14 12:49:45;;;;;;;106.88;62.97;;;21.80;99.90;;;;;;5130633;28;20067;-74
2021/07/14 12:52:15;;;;;;;107.78;65.57;;;21.80;99.90;;;;;;5130308;28;20023;-74
2021/07/14 12:54:41;;;;;;;104.10;63.45;;;21.80;99.90;;;;;;5130400;28;20389;-75
2021/07/14 12:57:26;;;;;;;107.75;65.93;;;21.70;99.90;;;;;;5129150;28;20043;-74